sensor_id;sensor_type;location;lat;lon;timestamp;pressure;altitude;pressure_sealevel;temperature;humidity
62680;BME280;74249;40.528;44.706;2023-11-19T00:01:26;79972.75;;;20.23;34.89
62680;BME280;74249;40.528;44.706;2023-11-19T00:03:27;79962.09;;;20.23;34.82
62680;BME280;74249;40.528;44.706;2023-11-19T00:05:28;79963.41;;;20.22;34.63
62680;BME280;74249;40.528;44.706;2023-11-19T00:07:29;79963.41;;;20.22;34.72
62680;BME280;74249;40.528;44.706;2023-11-19T00:09:29;79961.34;;;20.19;34.53
62680;BME280;74249;40.528;44.706;2023-11-19T00:11:30;79962.00;;;20.17;34.44
62680;BME280;74249;40.528;44.706;2023-11-19T00:13:31;79951.34;;;20.17;34.35
62680;BME280;74249;40.528;44.706;2023-11-19T00:15:31;79947.97;;;20.15;34.29
62680;BME280;74249;40.528;44.706;2023-11-19T00:17:32;79940.63;;;20.13;34.34
62680;BME280;74249;40.528;44.706;2023-11-19T00:19:32;79933.25;;;20.11;34.40
62680;BME280;74249;40.528;44.706;2023-11-19T00:21:33;79939.25;;;20.10;34.34
62680;BME280;74249;40.528;44.706;2023-11-19T00:23:33;79939.22;;;20.08;34.55
62680;BME280;74249;40.528;44.706;2023-11-19T00:25:34;79941.88;;;20.06;34.43
62680;BME280;74249;40.528;44.706;2023-11-19T00:27:35;79940.44;;;20.01;34.51
62680;BME280;74249;40.528;44.706;2023-11-19T00:29:37;79953.78;;;20.01;34.58
62680;BME280;74249;40.528;44.706;2023-11-19T00:31:38;79957.13;;;19.99;34.55
62680;BME280;74249;40.528;44.706;2023-11-19T00:33:38;79937.06;;;19.96;34.69
62680;BME280;74249;40.528;44.706;2023-11-19T00:35:39;79929.66;;;19.92;34.75
62680;BME280;74249;40.528;44.706;2023-11-19T00:37:40;79945.00;;;19.92;34.71
62680;BME280;74249;40.528;44.706;2023-11-19T00:39:43;79934.31;;;19.88;34.72
62680;BME280;74249;40.528;44.706;2023-11-19T00:41:46;79918.94;;;19.86;34.73
62680;BME280;74249;40.528;44.706;2023-11-19T00:43:47;79912.22;;;19.83;34.86
62680;BME280;74249;40.528;44.706;2023-11-19T00:45:47;79909.50;;;19.81;34.91
62680;BME280;74249;40.528;44.706;2023-11-19T00:47:50;79928.16;;;19.79;34.99
62680;BME280;74249;40.528;44.706;2023-11-19T00:49:51;79922.81;;;19.77;35.07
62680;BME280;74249;40.528;44.706;2023-11-19T00:51:52;79926.06;;;19.73;34.99
62680;BME280;74249;40.528;44.706;2023-11-19T00:53:53;79927.38;;;19.70;35.17
62680;BME280;74249;40.528;44.706;2023-11-19T00:55:53;79932.00;;;19.70;35.10
62680;BME280;74249;40.528;44.706;2023-11-19T00:57:54;79941.31;;;19.66;35.25
62680;BME280;74249;40.528;44.706;2023-11-19T00:59:56;79945.94;;;19.64;35.19
62680;BME280;74249;40.528;44.706;2023-11-19T01:01:57;79941.91;;;19.61;35.32
62680;BME280;74249;40.528;44.706;2023-11-19T01:03:58;79944.53;;;19.59;35.28
62680;BME280;74249;40.528;44.706;2023-11-19T01:05:58;79951.16;;;19.56;35.38
62680;BME280;74249;40.528;44.706;2023-11-19T01:08:01;79946.47;;;19.54;35.46
62680;BME280;74249;40.528;44.706;2023-11-19T01:10:05;79944.44;;;19.53;35.48
62680;BME280;74249;40.528;44.706;2023-11-19T01:12:06;79939.72;;;19.49;35.61
62680;BME280;74249;40.528;44.706;2023-11-19T01:14:07;79933.78;;;19.50;35.39
62680;BME280;74249;40.528;44.706;2023-11-19T01:16:08;79921.72;;;19.47;35.79
62680;BME280;74249;40.528;44.706;2023-11-19T01:18:10;79921.03;;;19.45;35.67
62680;BME280;74249;40.528;44.706;2023-11-19T01:20:11;79919.66;;;19.44;35.73
62680;BME280;74249;40.528;44.706;2023-11-19T01:22:13;79918.31;;;19.43;35.74
62680;BME280;74249;40.528;44.706;2023-11-19T01:24:13;79908.31;;;19.41;35.65
62680;BME280;74249;40.528;44.706;2023-11-19T01:26:14;79915.63;;;19.41;35.79
62680;BME280;74249;40.528;44.706;2023-11-19T01:28:15;79920.94;;;19.39;35.63
62680;BME280;74249;40.528;44.706;2023-11-19T01:30:15;79904.88;;;19.34;35.68
62680;BME280;74249;40.528;44.706;2023-11-19T01:32:16;79910.91;;;19.37;35.71
62680;BME280;74249;40.528;44.706;2023-11-19T01:34:17;79911.56;;;19.36;35.77
62680;BME280;74249;40.528;44.706;2023-11-19T01:36:17;79915.53;;;19.34;35.82
62680;BME280;74249;40.528;44.706;2023-11-19T01:38:18;79916.84;;;19.33;35.79
62680;BME280;74249;40.528;44.706;2023-11-19T01:40:21;79922.19;;;19.33;35.72
62680;BME280;74249;40.528;44.706;2023-11-19T01:42:22;79928.13;;;19.30;35.86
62680;BME280;74249;40.528;44.706;2023-11-19T01:44:25;79922.78;;;19.30;35.98
62680;BME280;74249;40.528;44.706;2023-11-19T01:46:26;79917.47;;;19.30;35.86
62680;BME280;74249;40.528;44.706;2023-11-19T01:48:27;79919.44;;;19.27;36.00
62680;BME280;74249;40.528;44.706;2023-11-19T01:50:28;79923.44;;;19.28;35.82
62680;BME280;74249;40.528;44.706;2023-11-19T01:52:29;79916.06;;;19.25;35.87
62680;BME280;74249;40.528;44.706;2023-11-19T01:54:29;79918.75;;;19.27;35.90
62680;BME280;74249;40.528;44.706;2023-11-19T01:56:31;79912.03;;;19.24;36.18
62680;BME280;74249;40.528;44.706;2023-11-19T01:58:32;79919.38;;;19.25;36.00
62680;BME280;74249;40.528;44.706;2023-11-19T02:00:33;79910.06;;;19.24;36.17
62680;BME280;74249;40.528;44.706;2023-11-19T02:02:33;79906.06;;;19.23;35.92
62680;BME280;74249;40.528;44.706;2023-11-19T02:04:34;79908.72;;;19.23;36.10
62680;BME280;74249;40.528;44.706;2023-11-19T02:06:37;79914.03;;;19.23;36.17
62680;BME280;74249;40.528;44.706;2023-11-19T02:08:41;79911.34;;;19.21;36.06
62680;BME280;74249;40.528;44.706;2023-11-19T02:10:41;79907.97;;;19.18;36.04
62680;BME280;74249;40.528;44.706;2023-11-19T02:12:43;79908.66;;;19.19;35.99
62680;BME280;74249;40.528;44.706;2023-11-19T02:14:44;79907.97;;;19.18;36.07
62680;BME280;74249;40.528;44.706;2023-11-19T02:16:44;79906.63;;;19.17;35.98
62680;BME280;74249;40.528;44.706;2023-11-19T02:18:45;79899.28;;;19.16;35.96
62680;BME280;74249;40.528;44.706;2023-11-19T02:20:46;79901.94;;;19.16;36.12
62680;BME280;74249;40.528;44.706;2023-11-19T02:22:46;79903.91;;;19.13;36.17
62680;BME280;74249;40.528;44.706;2023-11-19T02:24:51;79905.94;;;19.15;36.01
62680;BME280;74249;40.528;44.706;2023-11-19T02:28:52;79922.56;;;19.13;35.96
62680;BME280;74249;40.528;44.706;2023-11-19T02:30:53;79915.88;;;19.12;36.05
62680;BME280;74249;40.528;44.706;2023-11-19T02:33:00;79909.88;;;19.12;35.79
62680;BME280;74249;40.528;44.706;2023-11-19T02:35:06;79909.22;;;19.11;36.07
62680;BME280;74249;40.528;44.706;2023-11-19T02:37:08;79903.19;;;19.11;36.00
62680;BME280;74249;40.528;44.706;2023-11-19T02:39:08;79895.19;;;19.11;36.15
62680;BME280;74249;40.528;44.706;2023-11-19T02:41:14;79884.53;;;19.09;36.04
62680;BME280;74249;40.528;44.706;2023-11-19T02:43:15;79892.53;;;19.11;36.23
62680;BME280;74249;40.528;44.706;2023-11-19T02:45:15;79897.81;;;19.07;36.12
62680;BME280;74249;40.528;44.706;2023-11-19T02:47:16;79890.47;;;19.05;36.18
62680;BME280;74249;40.528;44.706;2023-11-19T02:49:17;79882.50;;;19.07;36.16
62680;BME280;74249;40.528;44.706;2023-11-19T02:51:18;79897.16;;;19.06;36.10
62680;BME280;74249;40.528;44.706;2023-11-19T02:53:19;79889.78;;;19.05;36.21
62680;BME280;74249;40.528;44.706;2023-11-19T02:55:23;79893.78;;;19.06;36.32
62680;BME280;74249;40.528;44.706;2023-11-19T02:57:24;79887.09;;;19.02;36.15
62680;BME280;74249;40.528;44.706;2023-11-19T02:59:25;79891.78;;;19.04;36.12
62680;BME280;74249;40.528;44.706;2023-11-19T03:01:38;79879.09;;;19.02;36.09
62680;BME280;74249;40.528;44.706;2023-11-19T03:03:43;79886.41;;;19.02;36.19
62680;BME280;74249;40.528;44.706;2023-11-19T03:05:49;79881.75;;;19.02;36.36
62680;BME280;74249;40.528;44.706;2023-11-19T03:07:50;79871.09;;;19.02;36.24
62680;BME280;74249;40.528;44.706;2023-11-19T03:09:50;79869.78;;;19.01;36.14
62680;BME280;74249;40.528;44.706;2023-11-19T03:11:51;79863.78;;;19.03;36.23
62680;BME280;74249;40.528;44.706;2023-11-19T03:13:51;79847.13;;;19.00;36.21
62680;BME280;74249;40.528;44.706;2023-11-19T03:15:52;79848.47;;;19.01;36.16
62680;BME280;74249;40.528;44.706;2023-11-19T03:17:54;79853.09;;;19.01;36.34
62680;BME280;74249;40.528;44.706;2023-11-19T03:19:54;79852.44;;;19.00;36.30
62680;BME280;74249;40.528;44.706;2023-11-19T03:21:55;79857.78;;;19.00;36.28
62680;BME280;74249;40.528;44.706;2023-11-19T03:23:55;79857.78;;;19.00;36.17
62680;BME280;74249;40.528;44.706;2023-11-19T03:25:56;79855.06;;;18.98;36.23
62680;BME280;74249;40.528;44.706;2023-11-19T03:27:57;79841.06;;;18.96;36.27
62680;BME280;74249;40.528;44.706;2023-11-19T03:29:58;79863.06;;;18.98;36.31
62680;BME280;74249;40.528;44.706;2023-11-19T03:31:59;79857.06;;;18.98;36.21
62680;BME280;74249;40.528;44.706;2023-11-19T03:33:59;79852.38;;;18.96;36.36
62680;BME280;74249;40.528;44.706;2023-11-19T03:36:00;79840.38;;;18.95;36.62
62680;BME280;74249;40.528;44.706;2023-11-19T03:38:00;79834.38;;;18.95;36.22
62680;BME280;74249;40.528;44.706;2023-11-19T03:40:01;79833.63;;;18.90;36.33
62680;BME280;74249;40.528;44.706;2023-11-19T03:42:02;79842.34;;;18.93;36.29
62680;BME280;74249;40.528;44.706;2023-11-19T03:44:03;79838.34;;;18.94;36.35
62680;BME280;74249;40.528;44.706;2023-11-19T03:46:04;79835.03;;;18.93;36.26
62680;BME280;74249;40.528;44.706;2023-11-19T03:48:05;79823.06;;;18.94;36.23
62680;BME280;74249;40.528;44.706;2023-11-19T03:50:06;79831.00;;;18.92;36.50
62680;BME280;74249;40.528;44.706;2023-11-19T03:52:08;79837.69;;;18.93;36.45
62680;BME280;74249;40.528;44.706;2023-11-19T03:54:09;79832.38;;;18.93;36.40
62680;BME280;74249;40.528;44.706;2023-11-19T03:56:12;79843.00;;;18.93;36.21
62680;BME280;74249;40.528;44.706;2023-11-19T03:58:13;79838.94;;;18.90;36.37
62680;BME280;74249;40.528;44.706;2023-11-19T04:00:14;79838.28;;;18.90;36.30
62680;BME280;74249;40.528;44.706;2023-11-19T04:02:15;79851.63;;;18.92;36.43
62680;BME280;74249;40.528;44.706;2023-11-19T04:04:16;79848.94;;;18.90;36.35
62680;BME280;74249;40.528;44.706;2023-11-19T04:06:16;79856.28;;;18.91;36.37
62680;BME280;74249;40.528;44.706;2023-11-19T04:08:17;79854.91;;;18.90;36.35
62680;BME280;74249;40.528;44.706;2023-11-19T04:10:17;79838.28;;;18.90;36.34
62680;BME280;74249;40.528;44.706;2023-11-19T04:12:18;79850.25;;;18.89;36.24
62680;BME280;74249;40.528;44.706;2023-11-19T04:14:19;79843.59;;;18.90;36.32
62680;BME280;74249;40.528;44.706;2023-11-19T04:16:26;79840.25;;;18.89;36.47
62680;BME280;74249;40.528;44.706;2023-11-19T04:18:28;79846.88;;;18.88;36.46
62680;BME280;74249;40.528;44.706;2023-11-19T04:20:28;79852.91;;;18.89;36.51
62680;BME280;74249;40.528;44.706;2023-11-19T04:22:29;79848.22;;;18.87;36.25
62680;BME280;74249;40.528;44.706;2023-11-19T04:24:30;79845.56;;;18.87;36.31
62680;BME280;74249;40.528;44.706;2023-11-19T04:26:30;79854.88;;;18.86;36.49
62680;BME280;74249;40.528;44.706;2023-11-19T04:28:31;79857.53;;;18.86;36.54
62680;BME280;74249;40.528;44.706;2023-11-19T04:30:32;79854.22;;;18.87;36.38
62680;BME280;74249;40.528;44.706;2023-11-19T04:32:32;79857.53;;;18.86;36.37
62680;BME280;74249;40.528;44.706;2023-11-19T04:34:33;79858.88;;;18.87;36.36
62680;BME280;74249;40.528;44.706;2023-11-19T04:36:34;79854.22;;;18.87;36.50
62680;BME280;74249;40.528;44.706;2023-11-19T04:38:35;79845.50;;;18.83;36.50
62680;BME280;74249;40.528;44.706;2023-11-19T04:40:35;79847.50;;;18.84;36.39
62680;BME280;74249;40.528;44.706;2023-11-19T04:42:36;79844.22;;;18.86;36.53
62680;BME280;74249;40.528;44.706;2023-11-19T04:44:36;79847.50;;;18.84;36.54
62680;BME280;74249;40.528;44.706;2023-11-19T04:46:37;79848.19;;;18.85;36.62
62680;BME280;74249;40.528;44.706;2023-11-19T04:48:38;79837.53;;;18.85;36.50
62680;BME280;74249;40.528;44.706;2023-11-19T04:50:38;79842.81;;;18.83;36.52
62680;BME280;74249;40.528;44.706;2023-11-19T04:52:39;79840.84;;;18.83;36.38
62680;BME280;74249;40.528;44.706;2023-11-19T04:54:45;79838.84;;;18.84;36.67
62680;BME280;74249;40.528;44.706;2023-11-19T04:56:45;79838.84;;;18.84;36.68
62680;BME280;74249;40.528;44.706;2023-11-19T04:58:47;79836.16;;;18.82;36.66
62680;BME280;74249;40.528;44.706;2023-11-19T05:00:48;79838.81;;;18.82;36.65
62680;BME280;74249;40.528;44.706;2023-11-19T05:02:48;79846.19;;;18.83;36.65
62680;BME280;74249;40.528;44.706;2023-11-19T05:04:49;79854.78;;;18.82;36.56
62680;BME280;74249;40.528;44.706;2023-11-19T05:06:49;79854.78;;;18.82;36.74
62680;BME280;74249;40.528;44.706;2023-11-19T05:08:50;79860.81;;;18.82;36.62
62680;BME280;74249;40.528;44.706;2023-11-19T05:10:50;79857.47;;;18.82;36.76
62680;BME280;74249;40.528;44.706;2023-11-19T05:12:51;79856.78;;;18.81;36.63
62680;BME280;74249;40.528;44.706;2023-11-19T05:14:52;79866.75;;;18.81;36.63
62680;BME280;74249;40.528;44.706;2023-11-19T05:16:52;79860.13;;;18.82;36.70
62680;BME280;74249;40.528;44.706;2023-11-19T05:18:53;79860.81;;;18.82;36.55
62680;BME280;74249;40.528;44.706;2023-11-19T05:20:53;79856.09;;;18.79;36.71
62680;BME280;74249;40.528;44.706;2023-11-19T05:22:54;79864.09;;;18.81;36.53
62680;BME280;74249;40.528;44.706;2023-11-19T05:24:55;79856.09;;;18.81;36.71
62680;BME280;74249;40.528;44.706;2023-11-19T05:26:56;79855.47;;;18.82;36.61
62680;BME280;74249;40.528;44.706;2023-11-19T05:28:58;79849.47;;;18.82;36.68
62680;BME280;74249;40.528;44.706;2023-11-19T05:30:58;79856.75;;;18.79;36.69
62680;BME280;74249;40.528;44.706;2023-11-19T05:32:59;79858.09;;;18.80;36.71
62680;BME280;74249;40.528;44.706;2023-11-19T05:35:01;79859.47;;;18.81;36.91
62680;BME280;74249;40.528;44.706;2023-11-19T05:37:02;79862.75;;;18.80;36.78
62680;BME280;74249;40.528;44.706;2023-11-19T05:39:02;79855.47;;;18.82;36.77
62680;BME280;74249;40.528;44.706;2023-11-19T05:41:05;79852.16;;;18.84;36.91
62680;BME280;74249;40.528;44.706;2023-11-19T05:43:06;79855.47;;;18.82;36.71
62680;BME280;74249;40.528;44.706;2023-11-19T05:45:07;79851.47;;;18.81;36.83
62680;BME280;74249;40.528;44.706;2023-11-19T05:47:08;79849.47;;;18.82;36.73
62680;BME280;74249;40.528;44.706;2023-11-19T05:49:09;79840.16;;;18.83;36.67
62680;BME280;74249;40.528;44.706;2023-11-19T05:51:09;79831.50;;;18.82;36.55
62680;BME280;74249;40.528;44.706;2023-11-19T05:53:10;79858.81;;;18.83;36.65
62680;BME280;74249;40.528;44.706;2023-11-19T05:55:13;79860.81;;;18.82;36.62
62680;BME280;74249;40.528;44.706;2023-11-19T05:57:14;79860.13;;;18.82;36.47
62680;BME280;74249;40.528;44.706;2023-11-19T05:59:15;79864.13;;;18.83;36.52
62680;BME280;74249;40.528;44.706;2023-11-19T06:01:17;79874.75;;;18.81;36.58
62680;BME280;74249;40.528;44.706;2023-11-19T06:03:18;79859.47;;;18.81;36.76
62680;BME280;74249;40.528;44.706;2023-11-19T06:05:19;79877.44;;;18.83;36.62
62680;BME280;74249;40.528;44.706;2023-11-19T06:07:19;79877.44;;;18.83;36.54
62680;BME280;74249;40.528;44.706;2023-11-19T06:09:21;79874.78;;;18.83;36.59
62680;BME280;74249;40.528;44.706;2023-11-19T06:11:23;79866.78;;;18.83;36.62
62680;BME280;74249;40.528;44.706;2023-11-19T06:13:27;79866.09;;;18.80;36.71
62680;BME280;74249;40.528;44.706;2023-11-19T06:15:27;79865.44;;;18.82;36.77
62680;BME280;74249;40.528;44.706;2023-11-19T06:17:28;79864.81;;;18.83;36.77
62680;BME280;74249;40.528;44.706;2023-11-19T06:19:29;79864.16;;;18.85;37.04
62680;BME280;74249;40.528;44.706;2023-11-19T06:21:29;79856.19;;;18.85;37.15
62680;BME280;74249;40.528;44.706;2023-11-19T06:23:30;79851.56;;;18.87;37.11
62680;BME280;74249;40.528;44.706;2023-11-19T06:25:30;79850.91;;;18.87;37.52
62680;BME280;74249;40.528;44.706;2023-11-19T06:27:31;79853.56;;;18.89;38.42
62680;BME280;74249;40.528;44.706;2023-11-19T06:29:31;79851.59;;;18.90;37.59
62680;BME280;74249;40.528;44.706;2023-11-19T06:31:32;79848.28;;;18.91;37.57
62680;BME280;74249;40.528;44.706;2023-11-19T06:33:32;79848.34;;;18.93;38.49
62680;BME280;74249;40.528;44.706;2023-11-19T06:35:33;79847.00;;;18.92;37.84
62680;BME280;74249;40.528;44.706;2023-11-19T06:37:39;79849.00;;;18.94;38.11
62680;BME280;74249;40.528;44.706;2023-11-19T06:39:40;79849.00;;;18.94;38.09
62680;BME280;74249;40.528;44.706;2023-11-19T06:41:47;79847.66;;;18.93;38.17
62680;BME280;74249;40.528;44.706;2023-11-19T06:43:48;79849.00;;;18.94;38.16
62680;BME280;74249;40.528;44.706;2023-11-19T06:45:49;79844.38;;;18.94;38.25
62680;BME280;74249;40.528;44.706;2023-11-19T06:47:49;79829.00;;;18.93;38.21
62680;BME280;74249;40.528;44.706;2023-11-19T06:49:50;79847.66;;;18.93;39.06
62680;BME280;74249;40.528;44.706;2023-11-19T06:51:50;79850.94;;;18.91;38.00
62680;BME280;74249;40.528;44.706;2023-11-19T06:53:53;79848.34;;;18.93;38.56
62680;BME280;74249;40.528;44.706;2023-11-19T06:55:54;79859.00;;;18.93;39.23
62680;BME280;74249;40.528;44.706;2023-11-19T06:57:54;79861.66;;;18.95;40.02
62680;BME280;74249;40.528;44.706;2023-11-19T06:59:55;79856.34;;;18.95;40.28
62680;BME280;74249;40.528;44.706;2023-11-19T07:01:56;79874.38;;;18.97;40.21
62680;BME280;74249;40.528;44.706;2023-11-19T07:03:56;79877.03;;;18.99;43.70
62680;BME280;74249;40.528;44.706;2023-11-19T07:05:58;79869.13;;;19.03;40.45
62680;BME280;74249;40.528;44.706;2023-11-19T07:07:59;79881.16;;;19.06;39.46
62680;BME280;74249;40.528;44.706;2023-11-19T07:10:02;79875.16;;;19.06;39.09
62680;BME280;74249;40.528;44.706;2023-11-19T07:12:04;79857.81;;;19.05;39.01
62680;BME280;74249;40.528;44.706;2023-11-19T07:14:06;79861.84;;;19.06;38.85
62680;BME280;74249;40.528;44.706;2023-11-19T07:16:07;79845.28;;;19.11;38.70
62680;BME280;74249;40.528;44.706;2023-11-19T07:18:10;79852.69;;;19.17;38.57
62680;BME280;74249;40.528;44.706;2023-11-19T07:20:12;79845.44;;;19.24;38.45
62680;BME280;74249;40.528;44.706;2023-11-19T07:22:14;79850.19;;;19.29;38.46
62680;BME280;74249;40.528;44.706;2023-11-19T07:24:15;79856.22;;;19.32;38.44
62680;BME280;74249;40.528;44.706;2023-11-19T07:26:16;79846.84;;;19.29;38.46
62680;BME280;74249;40.528;44.706;2023-11-19T07:28:17;79853.50;;;19.30;39.17
62680;BME280;74249;40.528;44.706;2023-11-19T07:30:17;79851.53;;;19.30;39.39
62680;BME280;74249;40.528;44.706;2023-11-19T07:32:18;79854.16;;;19.28;39.82
62680;BME280;74249;40.528;44.706;2023-11-19T07:34:18;79842.78;;;19.24;39.86
62680;BME280;74249;40.528;44.706;2023-11-19T07:36:20;79836.13;;;19.25;40.06
62680;BME280;74249;40.528;44.706;2023-11-19T07:38:20;79847.44;;;19.23;40.15
62680;BME280;74249;40.528;44.706;2023-11-19T07:40:21;79836.09;;;19.21;39.87
62680;BME280;74249;40.528;44.706;2023-11-19T07:42:22;79840.06;;;19.20;40.04
62680;BME280;74249;40.528;44.706;2023-11-19T07:44:23;79849.38;;;19.18;40.02
62680;BME280;74249;40.528;44.706;2023-11-19T07:46:23;79840.03;;;19.17;40.29
62680;BME280;74249;40.528;44.706;2023-11-19T07:48:25;79846.00;;;19.16;41.48
62680;BME280;74249;40.528;44.706;2023-11-19T07:50:26;79836.69;;;19.17;42.43
62680;BME280;74249;40.528;44.706;2023-11-19T07:52:27;79835.34;;;19.18;42.50
62680;BME280;74249;40.528;44.706;2023-11-19T07:54:28;79827.41;;;19.20;43.20
62680;BME280;74249;40.528;44.706;2023-11-19T07:56:29;79840.69;;;19.18;43.67
62680;BME280;74249;40.528;44.706;2023-11-19T07:58:29;79836.69;;;19.17;43.81
62680;BME280;74249;40.528;44.706;2023-11-19T08:00:30;79838.03;;;19.18;43.64
62680;BME280;74249;40.528;44.706;2023-11-19T08:02:30;79832.72;;;19.20;43.41
62680;BME280;74249;40.528;44.706;2023-11-19T08:04:31;79827.38;;;19.18;43.15
62680;BME280;74249;40.528;44.706;2023-11-19T08:06:32;79823.44;;;19.21;43.37
62680;BME280;74249;40.528;44.706;2023-11-19T08:08:32;79815.38;;;19.17;42.70
62680;BME280;74249;40.528;44.706;2023-11-19T08:10:34;79803.38;;;19.16;42.15
62680;BME280;74249;40.528;44.706;2023-11-19T08:12:36;79820.03;;;19.16;41.81
62680;BME280;74249;40.528;44.706;2023-11-19T08:14:37;79817.34;;;19.14;41.73
62680;BME280;74249;40.528;44.706;2023-11-19T08:16:39;79811.34;;;19.14;41.53
62680;BME280;74249;40.528;44.706;2023-11-19T08:18:42;79807.28;;;19.11;41.36
62680;BME280;74249;40.528;44.706;2023-11-19T08:20:44;79800.00;;;19.11;41.39
62680;BME280;74249;40.528;44.706;2023-11-19T08:22:45;79812.63;;;19.11;41.51
62680;BME280;74249;40.528;44.706;2023-11-19T08:24:45;79803.28;;;19.08;41.04
62680;BME280;74249;40.528;44.706;2023-11-19T08:26:46;79811.28;;;19.10;40.90
62680;BME280;74249;40.528;44.706;2023-11-19T08:28:46;79803.28;;;19.08;40.91
62680;BME280;74249;40.528;44.706;2023-11-19T08:30:47;79789.25;;;19.07;40.73
62680;BME280;74249;40.528;44.706;2023-11-19T08:32:48;79793.94;;;19.07;40.94
62680;BME280;74249;40.528;44.706;2023-11-19T08:34:49;79795.28;;;19.08;40.90
62680;BME280;74249;40.528;44.706;2023-11-19T08:36:52;79792.63;;;19.08;41.19
62680;BME280;74249;40.528;44.706;2023-11-19T08:38:54;79801.25;;;19.06;41.21
62680;BME280;74249;40.528;44.706;2023-11-19T08:40:54;79805.22;;;19.05;41.69
62680;BME280;74249;40.528;44.706;2023-11-19T08:42:59;79794.53;;;19.03;41.83
62680;BME280;74249;40.528;44.706;2023-11-19T08:45:00;79801.84;;;19.02;42.02
62680;BME280;74249;40.528;44.706;2023-11-19T08:47:01;79787.88;;;19.02;42.09
62680;BME280;74249;40.528;44.706;2023-11-19T08:49:01;79779.22;;;19.01;42.61
62680;BME280;74249;40.528;44.706;2023-11-19T08:51:03;79781.22;;;19.03;42.52
62680;BME280;74249;40.528;44.706;2023-11-19T08:53:04;79775.25;;;19.05;42.67
62680;BME280;74249;40.528;44.706;2023-11-19T08:55:07;79756.59;;;19.05;43.06
62680;BME280;74249;40.528;44.706;2023-11-19T08:57:10;79757.94;;;19.06;43.11
62680;BME280;74249;40.528;44.706;2023-11-19T08:59:10;79750.66;;;19.06;42.93
62680;BME280;74249;40.528;44.706;2023-11-19T09:01:11;79739.28;;;19.03;43.07
62680;BME280;74249;40.528;44.706;2023-11-19T09:03:11;79753.97;;;19.07;43.14
62680;BME280;74249;40.528;44.706;2023-11-19T09:05:12;79756.63;;;19.07;43.06
62680;BME280;74249;40.528;44.706;2023-11-19T09:07:13;79756.66;;;19.09;42.97
62680;BME280;74249;40.528;44.706;2023-11-19T09:09:13;79761.31;;;19.08;42.94
62680;BME280;74249;40.528;44.706;2023-11-19T09:11:14;79758.03;;;19.10;43.03
62680;BME280;74249;40.528;44.706;2023-11-19T09:13:15;79753.34;;;19.10;42.83
62680;BME280;74249;40.528;44.706;2023-11-19T09:15:15;79753.34;;;19.10;42.98
62680;BME280;74249;40.528;44.706;2023-11-19T09:17:17;79752.03;;;19.11;43.19
62680;BME280;74249;40.528;44.706;2023-11-19T09:19:18;79750.03;;;19.12;42.96
62680;BME280;74249;40.528;44.706;2023-11-19T09:21:19;79746.06;;;19.13;43.05
62680;BME280;74249;40.528;44.706;2023-11-19T09:23:20;79748.75;;;19.15;42.88
62680;BME280;74249;40.528;44.706;2023-11-19T09:25:20;79740.06;;;19.14;42.94
62680;BME280;74249;40.528;44.706;2023-11-19T09:27:21;79738.09;;;19.15;43.09
62680;BME280;74249;40.528;44.706;2023-11-19T09:29:22;79734.06;;;19.12;43.26
62680;BME280;74249;40.528;44.706;2023-11-19T09:31:22;79746.78;;;19.17;42.96
62680;BME280;74249;40.528;44.706;2023-11-19T09:33:23;79752.78;;;19.18;43.12
62680;BME280;74249;40.528;44.706;2023-11-19T09:35:24;79759.44;;;19.17;43.03
62680;BME280;74249;40.528;44.706;2023-11-19T09:37:24;79750.78;;;19.18;43.10
62680;BME280;74249;40.528;44.706;2023-11-19T09:39:25;79741.50;;;19.20;43.12
62680;BME280;74249;40.528;44.706;2023-11-19T09:41:26;79755.47;;;19.20;42.99
62680;BME280;74249;40.528;44.706;2023-11-19T09:43:28;79742.81;;;19.18;43.10
62680;BME280;74249;40.528;44.706;2023-11-19T09:45:29;79736.84;;;19.22;42.86
62680;BME280;74249;40.528;44.706;2023-11-19T09:47:33;79736.84;;;19.22;42.41
62680;BME280;74249;40.528;44.706;2023-11-19T09:49:35;79746.19;;;19.23;42.84
62680;BME280;74249;40.528;44.706;2023-11-19T09:51:36;79740.88;;;19.23;42.93
62680;BME280;74249;40.528;44.706;2023-11-19T09:53:38;79729.50;;;19.21;42.35
62680;BME280;74249;40.528;44.706;2023-11-19T09:55:38;79726.19;;;19.22;42.73
62680;BME280;74249;40.528;44.706;2023-11-19T09:57:40;79715.53;;;19.22;42.70
62680;BME280;74249;40.528;44.706;2023-11-19T09:59:42;79722.84;;;19.22;43.03
62680;BME280;74249;40.528;44.706;2023-11-19T10:01:43;79714.84;;;19.22;42.78
62680;BME280;74249;40.528;44.706;2023-11-19T10:03:46;79715.53;;;19.22;42.74
62680;BME280;74249;40.528;44.706;2023-11-19T10:05:47;79703.53;;;19.21;42.89
62680;BME280;74249;40.528;44.706;2023-11-19T10:07:48;79698.88;;;19.22;42.72
62680;BME280;74249;40.528;44.706;2023-11-19T10:09:49;79694.22;;;19.22;42.83
62680;BME280;74249;40.528;44.706;2023-11-19T10:11:50;79695.56;;;19.23;42.78
62680;BME280;74249;40.528;44.706;2023-11-19T10:13:53;79689.56;;;19.23;42.67
62680;BME280;74249;40.528;44.706;2023-11-19T10:15:55;79699.59;;;19.26;42.57
62680;BME280;74249;40.528;44.706;2023-11-19T10:17:56;79696.94;;;19.26;42.69
62680;BME280;74249;40.528;44.706;2023-11-19T10:19:57;79692.28;;;19.29;42.70
62680;BME280;74249;40.528;44.706;2023-11-19T10:22:03;79686.97;;;19.29;42.51
62680;BME280;74249;40.528;44.706;2023-11-19T10:24:04;79686.34;;;19.32;42.51
62680;BME280;74249;40.528;44.706;2023-11-19T10:26:06;79684.38;;;19.35;42.59
62680;BME280;74249;40.528;44.706;2023-11-19T10:28:07;79682.38;;;19.36;42.36
62680;BME280;74249;40.528;44.706;2023-11-19T10:30:08;79691.72;;;19.37;42.48
62680;BME280;74249;40.528;44.706;2023-11-19T10:32:12;79686.41;;;19.37;42.51
62680;BME280;74249;40.528;44.706;2023-11-19T10:34:26;79685.09;;;19.40;42.14
62680;BME280;74249;40.528;44.706;2023-11-19T10:36:39;79678.47;;;19.43;42.10